createdAt,value
2017-12-27T00:01:04.362Z,6.07
2017-12-27T00:03:37.398Z,5.65
2017-12-27T00:06:10.566Z,5.93
2017-12-27T00:08:43.762Z,4.62
2017-12-27T00:11:16.850Z,6.07
2017-12-27T00:17:05.576Z,5.50
2017-12-27T00:19:39.730Z,5.65
2017-12-27T00:22:13.350Z,5.22
2017-12-27T00:24:49.007Z,5.20
2017-12-27T00:27:23.648Z,5.00
2017-12-27T00:30:10.981Z,5.78
2017-12-27T00:32:38.131Z,5.43
2017-12-27T00:35:05.645Z,4.50
2017-12-27T00:37:33.924Z,5.60
2017-12-27T00:40:01.525Z,5.45
2017-12-27T00:42:29.116Z,4.95
2017-12-27T00:44:56.626Z,5.18
2017-12-27T00:47:24.182Z,5.10
2017-12-27T00:49:51.800Z,5.68
2017-12-27T00:52:19.321Z,6.35
2017-12-27T00:54:46.851Z,5.32
2017-12-27T00:57:14.335Z,5.68
2017-12-27T00:59:41.852Z,4.20
2017-12-27T01:02:09.348Z,4.90
2017-12-27T01:04:36.990Z,5.30
2017-12-27T01:07:04.694Z,3.75
2017-12-27T01:09:32.287Z,4.22
2017-12-27T01:12:00.000Z,4.43
2017-12-27T01:14:27.565Z,4.35
2017-12-27T01:16:55.278Z,4.25
2017-12-27T01:19:22.890Z,4.22
2017-12-27T01:21:50.454Z,3.85
2017-12-27T01:24:17.994Z,3.70
2017-12-27T01:26:45.775Z,3.65
2017-12-27T01:29:13.410Z,4.93
2017-12-27T01:31:40.954Z,3.83
2017-12-27T01:34:08.487Z,4.95
2017-12-27T01:36:36.018Z,3.67
2017-12-27T01:39:03.605Z,3.05
2017-12-27T01:41:31.155Z,3.00
2017-12-27T01:43:58.685Z,3.15
2017-12-27T01:46:26.300Z,3.35
2017-12-27T01:48:53.820Z,3.47
2017-12-27T01:51:21.927Z,3.55
2017-12-27T01:53:49.474Z,3.10
2017-12-27T01:56:16.988Z,3.28
2017-12-27T01:58:44.506Z,2.62
2017-12-27T02:01:12.021Z,4.00
2017-12-27T02:03:39.531Z,3.60
2017-12-27T02:06:07.010Z,4.20
2017-12-27T02:08:34.585Z,3.50
2017-12-27T02:11:02.105Z,2.97
2017-12-27T02:13:29.665Z,3.55
2017-12-27T02:15:57.251Z,4.22
2017-12-27T02:18:24.770Z,3.50
2017-12-27T02:20:52.256Z,3.10
2017-12-27T02:23:19.845Z,3.08
2017-12-27T02:25:47.438Z,2.60
2017-12-27T02:28:15.065Z,2.60
2017-12-27T02:30:43.388Z,2.85
2017-12-27T02:33:11.001Z,2.58
2017-12-27T02:35:38.554Z,3.08
2017-12-27T02:38:06.181Z,2.83
2017-12-27T02:40:33.840Z,2.65
2017-12-27T02:43:01.589Z,2.70
2017-12-27T02:45:29.622Z,2.83
2017-12-27T02:47:57.322Z,2.95
2017-12-27T02:50:26.295Z,2.80
2017-12-27T02:52:55.494Z,2.92
2017-12-27T02:55:23.082Z,3.33
2017-12-27T02:57:50.594Z,3.25
2017-12-27T03:00:18.073Z,3.90
2017-12-27T03:02:45.571Z,3.50
2017-12-27T03:05:13.039Z,4.03
2017-12-27T03:07:40.498Z,4.95
2017-12-27T03:10:08.014Z,5.53
2017-12-27T03:12:35.480Z,3.65
2017-12-27T03:15:02.997Z,3.55
2017-12-27T03:17:30.526Z,4.53
2017-12-27T03:19:58.090Z,3.65
2017-12-27T03:22:26.353Z,3.80
2017-12-27T03:24:53.839Z,3.53
2017-12-27T03:27:21.333Z,2.90
2017-12-27T03:29:49.838Z,3.30
2017-12-27T03:32:17.333Z,2.97
2017-12-27T03:34:44.830Z,3.08
2017-12-27T03:37:12.306Z,2.83
2017-12-27T03:39:39.780Z,3.00
2017-12-27T03:42:07.306Z,2.20
2017-12-27T03:44:34.782Z,2.65
2017-12-27T03:47:02.254Z,2.10
2017-12-27T03:49:29.723Z,1.92
2017-12-27T03:51:57.221Z,1.92
2017-12-27T03:54:24.686Z,2.17
2017-12-27T03:56:52.170Z,2.70
2017-12-27T03:59:19.646Z,2.70
2017-12-27T04:01:47.126Z,2.08
2017-12-27T04:04:14.579Z,1.92
2017-12-27T04:06:42.038Z,2.25
2017-12-27T04:09:09.522Z,1.85
2017-12-27T04:11:37.011Z,2.95
2017-12-27T04:14:04.491Z,1.85
2017-12-27T04:16:31.965Z,2.37
2017-12-27T04:18:59.457Z,2.28
2017-12-27T04:21:26.967Z,1.95
2017-12-27T04:23:54.511Z,1.62
2017-12-27T04:26:21.983Z,1.75
2017-12-27T04:28:49.464Z,1.60
2017-12-27T04:31:16.953Z,1.95
2017-12-27T04:33:44.411Z,2.12
2017-12-27T04:36:11.886Z,1.85
2017-12-27T04:38:39.359Z,2.00
2017-12-27T04:41:06.832Z,1.70
2017-12-27T04:43:35.091Z,1.60
2017-12-27T04:46:02.560Z,1.77
2017-12-27T04:48:30.813Z,1.67
2017-12-27T04:50:58.270Z,2.10
2017-12-27T04:53:25.744Z,1.52
2017-12-27T04:55:53.225Z,2.08
2017-12-27T04:58:20.726Z,1.60
2017-12-27T05:00:48.220Z,1.70
2017-12-27T05:03:15.706Z,1.60
2017-12-27T05:05:43.208Z,2.22
2017-12-27T05:08:10.696Z,1.62
2017-12-27T05:10:38.184Z,1.70
2017-12-27T05:13:05.673Z,1.70
2017-12-27T05:15:33.155Z,1.60
2017-12-27T05:18:00.667Z,2.00
2017-12-27T05:20:28.135Z,2.37
2017-12-27T05:22:55.638Z,1.65
2017-12-27T05:25:23.215Z,1.50
2017-12-27T05:27:50.700Z,1.70
2017-12-27T05:30:18.206Z,1.70
2017-12-27T05:32:45.701Z,2.05
2017-12-27T05:35:13.179Z,1.98
2017-12-27T05:37:40.679Z,1.73
2017-12-27T05:40:08.250Z,2.00
2017-12-27T05:42:36.500Z,2.00
2017-12-27T05:45:04.069Z,1.85
2017-12-27T05:47:31.548Z,2.40
2017-12-27T05:49:59.802Z,2.40
2017-12-27T05:52:27.289Z,3.00
2017-12-27T05:54:54.771Z,3.55
2017-12-27T05:57:22.318Z,2.80
2017-12-27T05:59:49.821Z,3.10
2017-12-27T06:02:17.314Z,2.60
2017-12-27T06:04:45.569Z,3.55
2017-12-27T06:07:13.079Z,2.08
2017-12-27T06:09:40.603Z,2.30
2017-12-27T06:12:08.841Z,2.17
2017-12-27T06:14:36.655Z,1.80
2017-12-27T06:17:04.162Z,1.95
2017-12-27T06:19:31.641Z,1.92
2017-12-27T06:21:59.119Z,2.10
2017-12-27T06:24:27.406Z,2.80
2017-12-27T06:26:54.872Z,1.65
2017-12-27T06:29:22.369Z,1.52
2017-12-27T06:31:49.882Z,2.12
2017-12-27T06:34:17.357Z,1.80
2017-12-27T06:36:44.825Z,1.85
2017-12-27T06:39:12.322Z,1.73
2017-12-27T06:41:39.797Z,2.22
2017-12-27T06:44:08.022Z,2.15
2017-12-27T06:46:35.508Z,1.70
2017-12-27T06:49:02.969Z,2.00
2017-12-27T06:51:30.441Z,1.75
2017-12-27T06:53:57.905Z,1.75
2017-12-27T06:56:25.368Z,1.80
2017-12-27T06:58:52.853Z,1.60
2017-12-27T07:01:20.346Z,1.95
2017-12-27T07:03:47.824Z,2.20
2017-12-27T07:06:16.420Z,2.28
2017-12-27T07:08:44.026Z,1.60
2017-12-27T07:11:11.493Z,1.98
2017-12-27T07:13:38.960Z,1.48
2017-12-27T07:16:06.429Z,2.70
2017-12-27T07:18:34.707Z,1.70
2017-12-27T07:21:02.171Z,1.70
2017-12-27T07:23:29.641Z,1.75
2017-12-27T07:25:57.121Z,2.05
2017-12-27T07:28:24.589Z,1.60
2017-12-27T07:30:52.091Z,1.90
2017-12-27T07:33:19.625Z,1.60
2017-12-27T07:35:47.098Z,2.22
2017-12-27T07:38:14.634Z,2.60
2017-12-27T07:40:42.144Z,2.75
2017-12-27T07:43:09.644Z,2.50
2017-12-27T07:45:38.186Z,2.90
2017-12-27T07:48:05.674Z,2.28
2017-12-27T07:50:33.182Z,2.95
2017-12-27T07:53:01.473Z,2.55
2017-12-27T07:55:28.990Z,2.30
2017-12-27T07:57:56.570Z,2.25
2017-12-27T08:00:24.034Z,3.10
2017-12-27T08:02:52.283Z,1.70
2017-12-27T08:05:19.768Z,2.15
2017-12-27T08:07:48.030Z,2.30
2017-12-27T08:10:15.498Z,2.60
2017-12-27T08:12:42.980Z,1.50
2017-12-27T08:15:10.464Z,1.90
2017-12-27T08:17:37.924Z,1.92
2017-12-27T08:20:05.676Z,1.90
2017-12-27T08:22:33.246Z,1.70
2017-12-27T08:25:00.818Z,2.15
2017-12-27T08:27:29.330Z,2.83
2017-12-27T08:29:57.608Z,2.10
2017-12-27T08:32:25.393Z,2.12
2017-12-27T08:34:55.902Z,1.60
2017-12-27T08:37:23.450Z,1.40
2017-12-27T08:39:51.003Z,1.98
2017-12-27T08:42:18.704Z,1.73
2017-12-27T08:44:46.276Z,1.95
2017-12-27T08:47:13.796Z,1.90
2017-12-27T08:49:41.344Z,2.42
2017-12-27T08:52:08.809Z,2.25
2017-12-27T08:54:37.090Z,2.58
2017-12-27T08:57:04.570Z,2.33
2017-12-27T08:59:32.048Z,2.20
2017-12-27T09:01:59.516Z,2.20
2017-12-27T09:04:27.053Z,1.70
2017-12-27T09:06:54.569Z,2.00
2017-12-27T09:09:22.071Z,2.00
2017-12-27T09:11:49.539Z,2.28
2017-12-27T09:14:17.438Z,2.62
2017-12-27T09:16:44.964Z,1.85
2017-12-27T09:19:12.473Z,2.17
2017-12-27T09:21:39.985Z,2.12
2017-12-27T09:24:07.462Z,2.20
2017-12-27T09:26:34.931Z,1.90
2017-12-27T09:29:02.390Z,2.20
2017-12-27T09:31:29.870Z,1.73
2017-12-27T09:33:57.372Z,1.90
2017-12-27T09:36:24.917Z,1.85
2017-12-27T09:38:52.447Z,2.47
2017-12-27T09:41:19.935Z,2.00
2017-12-27T09:43:47.418Z,1.65
2017-12-27T09:46:14.877Z,2.10
2017-12-27T09:48:42.352Z,2.00
2017-12-27T09:51:09.841Z,4.43
2017-12-27T09:53:37.329Z,2.25
2017-12-27T09:56:04.806Z,1.90
2017-12-27T09:58:32.294Z,1.90
2017-12-27T10:01:00.563Z,2.65
2017-12-27T10:03:28.030Z,1.85
2017-12-27T10:05:56.271Z,2.25
2017-12-27T10:08:23.852Z,2.15
2017-12-27T10:10:51.344Z,2.55
2017-12-27T10:13:18.789Z,2.55
2017-12-27T10:15:49.282Z,1.95
2017-12-27T10:18:23.112Z,2.10
2017-12-27T10:20:56.268Z,3.53
2017-12-27T10:23:23.902Z,2.40
2017-12-27T10:25:51.463Z,2.92
2017-12-27T10:28:19.771Z,2.70
2017-12-27T10:30:54.565Z,2.40
2017-12-27T10:33:22.827Z,2.05
2017-12-27T10:35:50.712Z,2.05
2017-12-27T10:38:25.091Z,2.70
2017-12-27T10:48:04.149Z,2.10
2017-12-27T10:54:49.596Z,1.95
2017-12-27T11:04:11.906Z,2.55
2017-12-27T11:06:47.144Z,2.45
2017-12-27T11:11:54.040Z,2.30
2017-12-27T11:14:29.165Z,2.10
2017-12-27T11:17:05.894Z,2.92
2017-12-27T11:19:46.815Z,2.80
2017-12-27T11:24:54.669Z,2.67
2017-12-27T11:27:44.650Z,2.97
2017-12-27T11:30:15.287Z,2.12
2017-12-27T11:35:28.848Z,2.75
2017-12-27T11:47:00.751Z,2.15
2017-12-27T11:49:29.128Z,2.62
2017-12-27T11:54:34.381Z,2.45
2017-12-27T11:57:01.862Z,2.55
2017-12-27T11:59:29.374Z,3.17
2017-12-27T12:01:56.877Z,2.50
2017-12-27T12:04:24.358Z,2.37
2017-12-27T12:06:51.817Z,3.17
2017-12-27T12:09:26.469Z,2.03
2017-12-27T12:11:54.401Z,2.37
2017-12-27T12:14:27.820Z,2.60
2017-12-27T12:50:55.165Z,1.80
2017-12-27T12:53:48.673Z,2.30
2017-12-27T12:56:17.904Z,1.90
2017-12-27T12:58:45.600Z,2.28
2017-12-27T13:01:13.144Z,2.20
2017-12-27T13:03:43.244Z,2.35
2017-12-27T13:06:10.854Z,1.85
2017-12-27T13:08:38.933Z,3.03
2017-12-27T13:11:06.538Z,2.87
2017-12-27T13:13:34.149Z,2.50
2017-12-27T13:16:03.401Z,2.30
2017-12-27T13:18:34.058Z,1.92
2017-12-27T13:21:03.873Z,3.00
2017-12-27T13:23:34.395Z,2.55
2017-12-27T13:26:02.755Z,2.30
2017-12-27T13:28:36.338Z,2.70
2017-12-27T13:31:04.653Z,2.85
2017-12-27T13:33:32.263Z,2.25
2017-12-27T13:35:59.807Z,2.37
2017-12-27T13:38:27.425Z,2.33
2017-12-27T13:40:55.036Z,2.40
2017-12-27T13:43:22.555Z,2.33
2017-12-27T13:45:50.879Z,2.60
2017-12-27T13:48:18.408Z,2.62
2017-12-27T13:50:46.087Z,2.75
2017-12-27T13:53:13.659Z,2.67
2017-12-27T13:55:42.480Z,2.95
2017-12-27T13:58:10.483Z,2.60
2017-12-27T14:00:42.302Z,2.22
2017-12-27T14:03:13.744Z,2.50
2017-12-27T14:05:42.244Z,2.50
2017-12-27T14:08:09.745Z,2.40
2017-12-27T14:10:40.042Z,2.30
2017-12-27T14:13:07.674Z,2.03
2017-12-27T14:15:35.337Z,1.98
2017-12-27T14:18:03.666Z,2.45
2017-12-27T14:20:31.202Z,2.37
2017-12-27T14:22:58.875Z,2.20
2017-12-27T14:25:27.039Z,2.10
2017-12-27T14:27:54.568Z,2.80
2017-12-27T14:30:22.169Z,2.53
2017-12-27T14:32:49.752Z,3.17
2017-12-27T14:35:17.315Z,6.22
2017-12-27T14:37:44.881Z,3.67
2017-12-27T14:40:12.599Z,2.58
2017-12-27T14:42:40.193Z,2.47
2017-12-27T14:45:07.792Z,3.00
2017-12-27T14:47:36.130Z,2.70
2017-12-27T14:50:04.532Z,2.85
2017-12-27T14:52:32.161Z,2.37
2017-12-27T14:54:59.822Z,2.45
2017-12-27T14:57:28.266Z,3.40
2017-12-27T14:59:55.875Z,3.50
2017-12-27T15:02:23.474Z,2.90
2017-12-27T15:04:51.723Z,2.37
2017-12-27T15:07:19.286Z,3.00
2017-12-27T15:09:46.795Z,3.05
2017-12-27T15:12:14.357Z,2.55
2017-12-27T15:14:41.919Z,2.95
2017-12-27T15:17:09.627Z,3.08
2017-12-27T15:19:37.136Z,3.00
2017-12-27T15:22:04.674Z,3.08
2017-12-27T15:24:32.179Z,2.70
2017-12-27T15:27:00.542Z,2.90
2017-12-27T15:29:28.132Z,2.60
2017-12-27T15:31:55.711Z,3.15
2017-12-27T15:34:23.308Z,2.90
2017-12-27T15:36:52.013Z,2.95
2017-12-27T15:39:19.616Z,2.35
2017-12-27T15:41:47.107Z,3.45
2017-12-27T15:44:14.866Z,2.85
2017-12-27T15:46:42.417Z,3.20
2017-12-27T15:49:10.740Z,2.90
2017-12-27T15:51:38.708Z,3.10
2017-12-27T15:54:10.450Z,3.17
2017-12-27T15:56:41.940Z,2.95
2017-12-27T15:59:09.751Z,3.55
2017-12-27T16:01:38.580Z,3.20
2017-12-27T16:04:06.169Z,3.58
2017-12-27T16:06:34.591Z,2.80
2017-12-27T16:09:02.642Z,3.37
2017-12-27T16:11:31.198Z,2.80
2017-12-27T16:14:00.426Z,3.00
2017-12-27T16:16:29.035Z,2.92
2017-12-27T16:18:56.684Z,3.50
2017-12-27T16:21:24.191Z,4.50
2017-12-27T16:23:52.615Z,3.30
2017-12-27T16:26:20.233Z,3.50
2017-12-27T16:28:47.740Z,4.15
2017-12-27T16:31:16.223Z,3.15
2017-12-27T16:33:43.826Z,3.40
2017-12-27T16:36:11.386Z,3.50
2017-12-27T16:38:38.882Z,3.60
2017-12-27T16:41:07.328Z,4.00
2017-12-27T16:43:35.019Z,3.58
2017-12-27T16:46:02.727Z,3.30
2017-12-27T16:48:31.141Z,3.40
2017-12-27T16:50:58.696Z,3.75
2017-12-27T16:53:26.954Z,3.90
2017-12-27T16:55:55.598Z,4.25
2017-12-27T16:58:23.202Z,3.42
2017-12-27T17:00:50.743Z,3.70
2017-12-27T17:03:19.383Z,4.43
2017-12-27T17:05:46.962Z,4.37
2017-12-27T17:08:14.657Z,3.55
2017-12-27T17:10:42.484Z,3.78
2017-12-27T17:13:10.285Z,3.87
2017-12-27T17:15:42.457Z,3.30
2017-12-27T17:18:11.266Z,3.55
2017-12-27T17:20:38.926Z,3.90
2017-12-27T17:23:08.805Z,3.75
2017-12-27T17:25:36.659Z,3.50
2017-12-27T17:28:04.216Z,3.35
2017-12-27T17:30:31.902Z,3.75
2017-12-27T17:32:59.417Z,4.07
2017-12-27T17:35:27.161Z,3.75
2017-12-27T17:37:55.478Z,4.37
2017-12-27T17:40:23.073Z,3.83
2017-12-27T17:42:50.601Z,3.80
2017-12-27T17:45:18.181Z,4.15
2017-12-27T17:47:46.350Z,4.40
2017-12-27T17:50:13.947Z,4.43
2017-12-27T17:52:43.861Z,4.20
2017-12-27T17:55:11.613Z,4.70
2017-12-27T17:57:39.216Z,4.55
2017-12-27T18:00:08.150Z,6.00
2017-12-27T18:02:35.807Z,5.20
2017-12-27T18:05:04.289Z,5.40
2017-12-27T18:07:32.918Z,5.10
2017-12-27T18:10:01.488Z,5.20
2017-12-27T18:12:33.324Z,5.43
2017-12-27T18:15:00.991Z,5.90
2017-12-27T18:17:28.578Z,5.82
2017-12-27T18:19:56.884Z,5.35
2017-12-27T18:22:25.198Z,6.20
2017-12-27T18:24:54.483Z,5.50
2017-12-27T18:27:23.249Z,6.43
2017-12-27T18:29:50.867Z,6.25
2017-12-27T18:32:18.636Z,6.30
2017-12-27T18:34:47.681Z,6.30
2017-12-27T18:37:16.064Z,6.75
2017-12-27T18:39:44.323Z,6.20
2017-12-27T18:42:15.753Z,5.80
2017-12-27T18:44:44.746Z,7.68
2017-12-27T18:47:13.576Z,6.55
2017-12-27T18:49:55.594Z,7.20
2017-12-27T18:52:29.190Z,6.72
2017-12-27T18:54:59.070Z,6.28
2017-12-27T18:57:30.987Z,7.72
2017-12-27T19:02:33.039Z,6.60
2017-12-27T19:05:06.391Z,7.70
2017-12-27T19:07:48.859Z,7.50
2017-12-27T19:10:17.707Z,6.90
2017-12-27T19:12:50.453Z,7.12
2017-12-27T19:15:21.539Z,6.20
2017-12-27T19:17:54.315Z,7.15
2017-12-27T19:20:27.866Z,6.97
2017-12-27T19:22:58.708Z,7.00
2017-12-27T19:25:27.595Z,6.95
2017-12-27T19:30:51.661Z,7.40
2017-12-27T19:33:19.247Z,7.10
2017-12-27T19:35:48.979Z,6.60
2017-12-27T19:38:17.908Z,7.70
2017-12-27T19:40:47.179Z,6.82
2017-12-27T19:43:15.860Z,7.50
2017-12-27T19:45:53.533Z,7.45
2017-12-27T19:48:22.877Z,6.62
2017-12-27T19:50:55.909Z,7.43
2017-12-27T19:53:23.881Z,8.45
2017-12-27T19:55:52.424Z,6.32
2017-12-27T19:58:20.851Z,6.80
2017-12-27T20:00:54.423Z,7.75
2017-12-27T20:03:25.552Z,7.28
2017-12-27T20:30:29.450Z,6.97
2017-12-27T20:33:12.641Z,5.97
2017-12-27T20:35:51.794Z,7.03
2017-12-27T20:38:24.116Z,7.30
2017-12-27T20:40:54.527Z,7.45
2017-12-27T20:43:23.117Z,7.53
2017-12-27T20:45:53.158Z,7.03
2017-12-27T20:48:37.635Z,6.10
2017-12-27T20:51:13.689Z,6.75
2017-12-27T20:53:53.717Z,7.32
2017-12-27T20:56:30.312Z,7.65
2017-12-27T20:59:08.329Z,7.10
2017-12-27T21:01:41.615Z,7.72
2017-12-27T21:07:05.379Z,6.85
2017-12-27T21:09:34.814Z,6.70
2017-12-27T21:26:42.302Z,7.55
2017-12-27T21:29:09.883Z,7.30
2017-12-27T21:31:37.582Z,6.78
2017-12-27T21:34:05.426Z,7.20
2017-12-27T21:36:34.517Z,8.27
2017-12-27T21:39:02.160Z,7.60
2017-12-27T21:41:30.246Z,7.95
2017-12-27T21:43:59.041Z,7.05
2017-12-27T21:46:26.742Z,7.10
2017-12-27T21:49:00.060Z,7.00
2017-12-27T21:51:28.379Z,7.93
2017-12-27T21:53:56.530Z,7.20
2017-12-27T21:56:24.334Z,7.40
2017-12-27T21:58:57.605Z,7.72
2017-12-27T22:01:30.745Z,7.28
2017-12-27T22:03:58.282Z,7.85
2017-12-27T22:06:25.893Z,7.25
2017-12-27T22:08:53.405Z,7.40
2017-12-27T22:11:20.947Z,6.82
2017-12-27T22:13:48.564Z,6.47
2017-12-27T22:16:16.087Z,6.90
2017-12-27T22:18:43.576Z,6.65
2017-12-27T22:21:16.698Z,7.60
2017-12-27T22:23:45.023Z,7.28
2017-12-27T22:26:12.479Z,7.22
2017-12-27T22:28:39.941Z,6.25
2017-12-27T22:31:07.416Z,6.90
2017-12-27T22:33:34.908Z,6.50
2017-12-27T22:36:02.492Z,6.47
2017-12-27T22:38:33.809Z,7.37
2017-12-27T22:41:02.034Z,7.05
2017-12-27T22:43:29.665Z,6.97
2017-12-27T22:45:57.153Z,8.18
2017-12-27T22:48:24.615Z,7.03
2017-12-27T22:50:52.169Z,7.10
2017-12-27T22:53:19.674Z,6.75
2017-12-27T22:55:51.023Z,7.20
2017-12-27T22:58:18.564Z,6.93
2017-12-27T23:00:49.094Z,6.57
2017-12-27T23:03:16.605Z,6.57
2017-12-27T23:05:45.243Z,5.97
2017-12-27T23:08:16.272Z,6.10
2017-12-27T23:10:43.781Z,6.40
2017-12-27T23:13:11.398Z,5.85
2017-12-27T23:15:39.068Z,7.50
2017-12-27T23:18:06.676Z,7.97
2017-12-27T23:20:34.269Z,7.40
2017-12-27T23:23:01.765Z,7.65
2017-12-27T23:25:29.567Z,6.85
2017-12-27T23:27:57.121Z,7.20
2017-12-27T23:30:24.668Z,7.50
2017-12-27T23:32:52.290Z,6.25
2017-12-27T23:35:19.940Z,7.20
2017-12-27T23:37:48.183Z,7.22
2017-12-27T23:40:15.841Z,6.50
2017-12-27T23:42:43.494Z,7.30
2017-12-27T23:45:11.086Z,7.70
2017-12-27T23:47:38.933Z,6.53
2017-12-27T23:50:06.546Z,6.55
2017-12-27T23:52:34.152Z,6.28
2017-12-27T23:55:01.748Z,6.78
2017-12-27T23:57:29.384Z,6.37
2017-12-27T23:59:56.925Z,6.97
